KTIW/TIW METAR and TAF weather

Enter ICAO airport designator
Station Type Date Time Source
KTIW METAR 2021/06/22 21:53 UTC NOAA

KTIW 222153Z VRB06KT 10SM CLR 22/15 A2986 RMK AO2 SLP108 T02220150


Station Type Date Time Source
KTIW Decoded METAR 2021/06/22 21:53 UTC NOAA

Tacoma, Tacoma Narrows Airport, WA, United States (KTIW) 47-16-03N 122-34-34W 96M
Jun 22, 2021 - 05:53 PM EDT / 2021.06.22 2153 UTC
Wind: Variable at 7 MPH (6 KT):0
Visibility: 10 mile(s):0
Sky conditions: clear
Temperature: 72.0 F (22.2 C)
Dew Point: 59.0 F (15.0 C)
Relative Humidity: 63%
Pressure (altimeter): 29.86 in. Hg (1011 hPa)
ob: KTIW 222153Z VRB06KT 10SM CLR 22/15 A2986 RMK AO2 SLP108 T02220150
cycle: 22

Station Type Date Time Source
KTIW TAF UTC NOAA

Error!

Example: see airport list